createdAt,value
2023-04-16T00:01:26.554Z,1.63
2023-04-16T00:03:55.144Z,1.80
2023-04-16T00:06:23.308Z,2.03
2023-04-16T00:08:51.669Z,1.80
2023-04-16T00:11:19.075Z,1.92
2023-04-16T00:13:46.425Z,1.70
2023-04-16T00:16:13.822Z,1.88
2023-04-16T00:18:41.457Z,1.95
2023-04-16T00:21:08.807Z,2.80
2023-04-16T00:23:36.249Z,1.80
2023-04-16T00:26:03.967Z,2.10
2023-04-16T00:28:31.351Z,2.20
2023-04-16T00:30:59.470Z,1.85
2023-04-16T00:33:26.905Z,1.45
2023-04-16T00:35:54.286Z,1.75
2023-04-16T00:38:21.820Z,1.60
2023-04-16T00:40:49.168Z,1.85
2023-04-16T00:43:24.862Z,1.90
2023-04-16T00:45:57.392Z,2.00
2023-04-16T00:48:27.835Z,2.15
2023-04-16T00:50:55.959Z,1.95
2023-04-16T00:53:24.340Z,2.10
2023-04-16T00:55:52.168Z,2.17
2023-04-16T00:58:20.276Z,1.90
2023-04-16T01:00:48.160Z,2.20
2023-04-16T01:03:16.858Z,2.30
2023-04-16T01:05:46.042Z,2.85
2023-04-16T01:08:21.578Z,2.65
2023-04-16T01:10:48.928Z,3.30
2023-04-16T01:13:16.316Z,3.63
2023-04-16T01:15:43.802Z,3.72
2023-04-16T01:18:18.915Z,4.50
2023-04-16T01:20:47.191Z,4.45
2023-04-16T01:23:15.476Z,3.17
2023-04-16T01:25:42.859Z,3.50
2023-04-16T01:28:10.700Z,2.55
2023-04-16T01:30:38.144Z,2.90
2023-04-16T01:33:25.849Z,2.55
2023-04-16T01:35:53.241Z,2.78
2023-04-16T01:38:20.666Z,2.80
2023-04-16T01:40:48.070Z,2.60
2023-04-16T01:43:15.678Z,2.42
2023-04-16T01:45:43.237Z,2.70
2023-04-16T01:48:12.735Z,3.20
2023-04-16T01:50:40.732Z,2.72
2023-04-16T01:53:09.674Z,2.75
2023-04-16T01:55:37.033Z,2.63
2023-04-16T01:58:04.683Z,3.00
2023-04-16T02:00:35.019Z,2.83
2023-04-16T02:03:02.727Z,3.17
2023-04-16T02:05:30.423Z,2.75
2023-04-16T02:07:58.704Z,3.17
2023-04-16T02:10:26.160Z,2.53
2023-04-16T02:12:53.773Z,3.10
2023-04-16T02:15:21.250Z,3.40
2023-04-16T02:17:51.048Z,4.53
2023-04-16T02:20:19.125Z,4.40
2023-04-16T02:22:54.105Z,5.88
2023-04-16T02:25:24.343Z,4.03
2023-04-16T02:27:54.327Z,4.65
2023-04-16T02:30:31.459Z,3.60
2023-04-16T02:32:59.106Z,3.08
2023-04-16T02:35:26.678Z,4.00
2023-04-16T02:37:53.997Z,3.88
2023-04-16T02:40:22.473Z,4.68
2023-04-16T02:42:50.096Z,4.20
2023-04-16T02:45:17.651Z,4.00
2023-04-16T02:47:46.350Z,4.07
2023-04-16T02:50:13.861Z,4.03
2023-04-16T02:52:41.277Z,3.80
2023-04-16T02:55:09.313Z,4.25
2023-04-16T02:57:36.747Z,4.40
2023-04-16T03:00:05.161Z,4.45
2023-04-16T03:02:32.993Z,3.85
2023-04-16T03:05:00.666Z,3.80
2023-04-16T03:07:28.084Z,3.92
2023-04-16T03:09:55.466Z,3.92
2023-04-16T03:12:22.881Z,4.13
2023-04-16T03:14:52.557Z,4.47
2023-04-16T03:17:20.047Z,4.22
2023-04-16T03:19:47.475Z,4.68
2023-04-16T03:22:14.852Z,4.85
2023-04-16T03:24:42.212Z,4.15
2023-04-16T03:27:09.587Z,4.50
2023-04-16T03:29:40.533Z,4.25
2023-04-16T03:32:09.343Z,4.15
2023-04-16T03:34:37.274Z,3.80
2023-04-16T03:37:06.169Z,3.78
2023-04-16T03:39:34.633Z,3.92
2023-04-16T03:42:02.498Z,4.28
2023-04-16T03:44:30.358Z,4.53
2023-04-16T03:46:57.788Z,4.93
2023-04-16T03:49:25.373Z,4.45
2023-04-16T03:51:53.212Z,4.72
2023-04-16T03:54:22.709Z,5.03
2023-04-16T03:56:57.205Z,4.80
2023-04-16T03:59:24.776Z,3.95
2023-04-16T04:01:52.289Z,5.18
2023-04-16T04:04:19.957Z,4.63
2023-04-16T04:06:47.504Z,4.38
2023-04-16T04:09:16.343Z,4.28
2023-04-16T04:11:43.916Z,4.45
2023-04-16T04:14:11.339Z,4.32
2023-04-16T04:16:39.477Z,4.63
2023-04-16T04:19:07.028Z,4.85
2023-04-16T04:21:34.920Z,4.85
2023-04-16T04:24:03.745Z,4.80
2023-04-16T04:26:33.078Z,4.78
2023-04-16T04:29:00.495Z,5.20
2023-04-16T04:31:27.986Z,5.13
2023-04-16T04:33:56.423Z,4.50
2023-04-16T04:36:23.986Z,5.00
2023-04-16T04:38:52.066Z,5.10
2023-04-16T04:41:21.674Z,5.32
2023-04-16T04:43:49.141Z,5.20
2023-04-16T04:46:17.115Z,6.20
2023-04-16T04:48:44.573Z,8.25
2023-04-16T04:51:12.002Z,6.35
2023-04-16T04:53:39.431Z,6.00
2023-04-16T04:56:12.443Z,6.07
2023-04-16T04:58:41.670Z,5.47
2023-04-16T05:01:09.187Z,5.68
2023-04-16T05:03:36.739Z,5.43
2023-04-16T05:06:04.500Z,5.25
2023-04-16T05:08:31.900Z,5.20
2023-04-16T05:10:59.328Z,6.40
2023-04-16T05:13:27.128Z,5.38
2023-04-16T05:15:54.601Z,5.07
2023-04-16T05:18:21.952Z,5.82
2023-04-16T05:20:49.320Z,5.53
2023-04-16T05:23:16.799Z,5.13
2023-04-16T05:25:44.150Z,5.18
2023-04-16T05:28:11.584Z,5.95
2023-04-16T05:30:39.017Z,8.65
2023-04-16T05:33:06.463Z,5.80
2023-04-16T05:35:35.116Z,5.43
2023-04-16T05:38:02.525Z,5.57
2023-04-16T05:40:30.060Z,5.05
2023-04-16T05:42:57.620Z,4.95
2023-04-16T05:45:27.472Z,3.28
2023-04-16T05:47:55.644Z,2.47
2023-04-16T05:50:23.065Z,2.40
2023-04-16T05:52:50.508Z,2.33
2023-04-16T05:55:17.998Z,2.42
2023-04-16T05:57:45.422Z,2.30
2023-04-16T06:00:13.026Z,2.40
2023-04-16T06:02:40.815Z,2.30
2023-04-16T06:05:08.590Z,2.10
2023-04-16T06:07:36.101Z,2.10
2023-04-16T06:10:03.621Z,3.45
2023-04-16T06:12:31.138Z,2.92
2023-04-16T06:14:58.469Z,2.55
2023-04-16T06:17:25.942Z,2.30
2023-04-16T06:19:53.396Z,2.33
2023-04-16T06:22:20.772Z,2.47
2023-04-16T06:24:48.327Z,2.95
2023-04-16T06:27:15.735Z,3.40
2023-04-16T06:29:43.344Z,3.03
2023-04-16T06:32:11.086Z,3.63
2023-04-16T06:34:39.536Z,3.33
2023-04-16T06:37:09.847Z,2.92
2023-04-16T06:39:38.055Z,3.10
2023-04-16T06:42:05.576Z,3.30
2023-04-16T06:44:33.130Z,3.60
2023-04-16T06:47:00.501Z,3.50
2023-04-16T06:49:27.967Z,3.33
2023-04-16T06:51:55.405Z,3.50
2023-04-16T06:54:22.774Z,2.88
2023-04-16T06:56:50.284Z,3.55
2023-04-16T06:59:17.692Z,2.88
2023-04-16T07:01:45.371Z,3.30
2023-04-16T07:04:12.864Z,3.13
2023-04-16T07:06:40.427Z,2.92
2023-04-16T07:09:08.005Z,2.92
2023-04-16T07:11:35.792Z,3.30
2023-04-16T07:14:04.149Z,3.47
2023-04-16T07:16:31.515Z,3.60
2023-04-16T07:18:58.960Z,3.50
2023-04-16T07:21:26.587Z,3.70
2023-04-16T07:23:54.029Z,3.10
2023-04-16T07:26:21.492Z,3.20
2023-04-16T07:28:48.956Z,4.20
2023-04-16T07:31:16.334Z,3.25
2023-04-16T07:33:43.718Z,3.97
2023-04-16T07:36:11.264Z,3.90
2023-04-16T07:38:38.604Z,3.70
2023-04-16T07:41:06.053Z,3.85
2023-04-16T07:43:33.414Z,3.88
2023-04-16T07:46:00.785Z,3.13
2023-04-16T07:48:28.274Z,3.30
2023-04-16T07:50:55.715Z,3.30
2023-04-16T07:53:23.184Z,3.30
2023-04-16T07:55:50.547Z,3.35
2023-04-16T07:58:17.954Z,4.07
2023-04-16T08:00:45.728Z,4.22
2023-04-16T08:03:13.289Z,4.68
2023-04-16T08:05:40.816Z,5.20
2023-04-16T08:08:08.274Z,6.15
2023-04-16T08:10:36.003Z,5.13
2023-04-16T08:13:03.515Z,5.35
2023-04-16T08:15:31.384Z,5.57
2023-04-16T08:17:59.627Z,5.18
2023-04-16T08:20:27.416Z,6.07
2023-04-16T08:22:55.083Z,7.07
2023-04-16T08:25:24.682Z,5.97
2023-04-16T08:27:52.076Z,6.93
2023-04-16T08:30:19.615Z,6.70
2023-04-16T08:32:49.945Z,6.38
2023-04-16T08:35:17.644Z,6.55
2023-04-16T08:37:45.066Z,6.55
2023-04-16T08:40:12.779Z,7.15
2023-04-16T08:42:48.649Z,5.85
2023-04-16T08:45:18.296Z,6.30
2023-04-16T08:47:50.504Z,6.65
2023-04-16T08:50:24.157Z,6.47
2023-04-16T08:52:59.878Z,5.10
2023-04-16T08:55:37.425Z,4.07
2023-04-16T08:58:13.389Z,5.13
2023-04-16T09:00:41.302Z,3.58
2023-04-16T09:03:10.198Z,3.55
2023-04-16T09:05:38.348Z,3.83
2023-04-16T09:08:07.038Z,2.50
2023-04-16T09:10:34.834Z,3.00
2023-04-16T09:13:02.228Z,3.13
2023-04-16T09:15:29.746Z,3.60
2023-04-16T09:17:57.675Z,2.90
2023-04-16T09:20:25.330Z,3.55
2023-04-16T09:22:52.830Z,4.20
2023-04-16T09:25:22.214Z,3.10
2023-04-16T09:27:51.008Z,3.60
2023-04-16T09:30:22.331Z,2.70
2023-04-16T09:32:51.161Z,3.50
2023-04-16T09:35:19.565Z,3.33
2023-04-16T09:37:57.847Z,3.10
2023-04-16T09:40:27.448Z,2.92
2023-04-16T09:42:58.419Z,2.60
2023-04-16T09:45:26.248Z,2.50
2023-04-16T09:48:03.954Z,2.97
2023-04-16T09:50:31.434Z,3.40
2023-04-16T09:53:03.620Z,2.50
2023-04-16T09:55:31.347Z,1.88
2023-04-16T09:58:00.921Z,2.40
2023-04-16T10:00:30.352Z,1.95
2023-04-16T10:03:05.699Z,2.25
2023-04-16T10:05:33.265Z,3.83
2023-04-16T10:08:02.145Z,2.75
2023-04-16T10:10:29.976Z,2.65
2023-04-16T10:12:58.107Z,2.63
2023-04-16T10:15:25.894Z,3.30
2023-04-16T10:17:54.339Z,2.10
2023-04-16T10:20:23.870Z,2.10
2023-04-16T10:22:51.636Z,2.88
2023-04-16T10:25:19.538Z,3.03
2023-04-16T10:27:47.341Z,1.98
2023-04-16T10:30:16.727Z,2.35
2023-04-16T10:32:45.803Z,2.00
2023-04-16T10:35:19.161Z,1.73
2023-04-16T10:37:47.477Z,1.63
2023-04-16T10:40:26.225Z,1.73
2023-04-16T10:42:57.888Z,1.70
2023-04-16T10:45:32.608Z,1.88
2023-04-16T10:48:04.209Z,1.98
2023-04-16T10:50:38.224Z,1.70
2023-04-16T10:53:25.397Z,2.33
2023-04-16T10:56:05.590Z,2.55
2023-04-16T10:58:36.323Z,2.70
2023-04-16T11:01:14.584Z,2.97
2023-04-16T11:03:43.903Z,2.40
2023-04-16T11:06:19.162Z,2.42
2023-04-16T11:08:54.399Z,1.90
2023-04-16T11:11:22.680Z,2.70
2023-04-16T11:13:54.886Z,2.40
2023-04-16T11:16:22.285Z,2.65
2023-04-16T11:18:51.624Z,3.80
2023-04-16T11:21:20.146Z,3.42
2023-04-16T11:23:53.081Z,3.30
2023-04-16T11:26:25.009Z,3.60
2023-04-16T11:28:53.556Z,2.92
2023-04-16T11:31:21.084Z,3.00
2023-04-16T11:33:48.858Z,3.63
2023-04-16T11:36:16.338Z,2.85
2023-04-16T11:38:43.831Z,3.03
2023-04-16T11:41:11.345Z,3.40
2023-04-16T11:43:39.026Z,2.70
2023-04-16T11:46:20.059Z,3.63
2023-04-16T11:48:56.201Z,3.83
2023-04-16T11:51:24.052Z,3.60
2023-04-16T11:53:56.183Z,3.55
2023-04-16T11:56:32.361Z,3.97
2023-04-16T11:59:23.156Z,3.97
2023-04-16T12:01:52.615Z,4.20
2023-04-16T12:04:22.315Z,4.10
2023-04-16T12:07:09.238Z,4.35
2023-04-16T12:09:40.173Z,3.65
2023-04-16T12:12:27.560Z,3.40
2023-04-16T12:14:56.915Z,3.90
2023-04-16T12:17:24.504Z,3.55
2023-04-16T12:19:55.995Z,4.00
2023-04-16T12:22:37.548Z,3.80
2023-04-16T12:25:11.749Z,3.80
2023-04-16T12:27:47.349Z,4.38
2023-04-16T12:30:26.075Z,4.13
2023-04-16T12:33:14.804Z,3.58
2023-04-16T12:35:43.964Z,3.63
2023-04-16T12:38:11.952Z,4.00
2023-04-16T12:40:39.397Z,3.60
2023-04-16T12:43:06.822Z,3.30
2023-04-16T12:45:34.279Z,4.13
2023-04-16T12:48:01.691Z,3.95
2023-04-16T12:50:29.040Z,3.40
2023-04-16T12:52:56.854Z,4.05
2023-04-16T12:55:24.825Z,5.18
2023-04-16T12:57:55.640Z,3.83
2023-04-16T13:00:23.206Z,3.40
2023-04-16T13:02:50.714Z,3.35
2023-04-16T13:05:19.298Z,4.63
2023-04-16T13:07:47.010Z,3.22
2023-04-16T13:10:14.389Z,3.50
2023-04-16T13:12:41.759Z,3.25
2023-04-16T13:15:10.065Z,3.70
2023-04-16T13:17:37.521Z,3.92
2023-04-16T13:20:05.397Z,3.50
2023-04-16T13:22:33.421Z,3.20
2023-04-16T13:25:00.900Z,3.38
2023-04-16T13:27:28.345Z,3.70
2023-04-16T13:29:55.881Z,3.22
2023-04-16T13:32:23.468Z,3.13
2023-04-16T13:34:50.963Z,3.55
2023-04-16T13:37:18.405Z,3.47
2023-04-16T13:39:45.951Z,3.42
2023-04-16T13:42:13.321Z,2.92
2023-04-16T13:44:41.019Z,3.28
2023-04-16T13:47:08.547Z,3.22
2023-04-16T13:49:36.370Z,3.70
2023-04-16T13:52:04.053Z,3.03
2023-04-16T13:54:31.468Z,2.90
2023-04-16T13:56:58.857Z,3.40
2023-04-16T13:59:26.671Z,2.90
2023-04-16T14:01:54.108Z,3.10
2023-04-16T14:04:22.528Z,3.00
2023-04-16T14:06:50.248Z,3.28
2023-04-16T14:09:17.670Z,2.90
2023-04-16T14:11:45.470Z,3.35
2023-04-16T14:14:12.876Z,3.55
2023-04-16T14:16:40.484Z,3.45
2023-04-16T14:19:07.948Z,3.85
2023-04-16T14:21:35.916Z,3.90
2023-04-16T14:24:03.510Z,4.68
2023-04-16T14:26:30.960Z,4.60
2023-04-16T14:28:58.434Z,4.32
2023-04-16T14:31:26.178Z,4.32
2023-04-16T14:33:53.627Z,4.30
2023-04-16T14:36:21.057Z,4.30
2023-04-16T14:38:48.593Z,4.25
2023-04-16T14:41:16.033Z,4.05
2023-04-16T14:43:44.389Z,3.78
2023-04-16T14:46:11.884Z,4.40
2023-04-16T14:48:39.278Z,3.75
2023-04-16T14:51:07.291Z,3.60
2023-04-16T14:53:36.209Z,4.18
2023-04-16T14:56:04.287Z,4.00
2023-04-16T14:58:32.118Z,4.22
2023-04-16T15:00:59.589Z,4.30
2023-04-16T15:03:27.494Z,4.15
2023-04-16T15:05:55.855Z,4.57
2023-04-16T15:08:24.168Z,3.92
2023-04-16T15:10:51.802Z,4.18
2023-04-16T15:13:19.558Z,4.35
2023-04-16T15:15:47.001Z,4.07
2023-04-16T15:18:14.724Z,3.90
2023-04-16T15:20:42.190Z,3.90
2023-04-16T15:23:09.522Z,3.67
2023-04-16T15:25:36.937Z,3.92
2023-04-16T15:28:04.618Z,4.50
2023-04-16T15:30:32.136Z,3.78
2023-04-16T15:32:59.617Z,3.63
2023-04-16T15:35:27.073Z,3.67
2023-04-16T15:37:55.364Z,3.53
2023-04-16T15:40:22.954Z,2.95
2023-04-16T15:42:50.750Z,3.08
2023-04-16T15:45:18.279Z,3.90
2023-04-16T15:47:48.050Z,3.47
2023-04-16T15:50:15.630Z,3.65
2023-04-16T15:52:43.128Z,3.13
2023-04-16T15:55:10.635Z,3.20
2023-04-16T15:57:38.358Z,3.00
2023-04-16T16:00:17.212Z,3.72
2023-04-16T16:02:46.820Z,2.55
2023-04-16T16:05:15.171Z,2.60
2023-04-16T16:07:43.776Z,2.72
2023-04-16T16:10:13.241Z,2.80
2023-04-16T16:12:41.484Z,2.97
2023-04-16T16:15:10.955Z,3.10
2023-04-16T16:17:39.325Z,3.20
2023-04-16T16:20:10.531Z,3.15
2023-04-16T16:22:38.277Z,3.72
2023-04-16T16:25:07.089Z,3.08
2023-04-16T16:27:36.109Z,3.83
2023-04-16T16:30:06.664Z,2.63
2023-04-16T16:32:34.180Z,2.80
2023-04-16T16:35:01.741Z,2.50
2023-04-16T16:37:29.560Z,2.00
2023-04-16T16:39:56.986Z,2.55
2023-04-16T16:42:24.426Z,2.45
2023-04-16T16:44:52.648Z,2.35
2023-04-16T16:47:20.839Z,1.98
2023-04-16T16:49:49.442Z,2.22
2023-04-16T16:52:17.056Z,2.38
2023-04-16T16:54:44.637Z,1.95
2023-04-16T16:57:12.710Z,2.30
2023-04-16T16:59:40.324Z,2.38
2023-04-16T17:02:07.916Z,1.60
2023-04-16T17:04:35.374Z,1.45
2023-04-16T17:07:02.850Z,1.73
2023-04-16T17:09:30.223Z,1.58
2023-04-16T17:11:57.630Z,1.80
2023-04-16T17:14:25.153Z,1.30
2023-04-16T17:16:52.655Z,2.08
2023-04-16T17:19:20.072Z,1.90
2023-04-16T17:21:47.437Z,2.50
2023-04-16T17:24:15.008Z,2.78
2023-04-16T17:26:42.481Z,3.00
2023-04-16T17:29:09.993Z,6.90
2023-04-16T17:31:37.461Z,5.15
2023-04-16T17:34:06.261Z,4.57
2023-04-16T17:36:33.651Z,3.60
2023-04-16T17:39:01.056Z,2.38
2023-04-16T17:41:28.425Z,2.05
2023-04-16T17:43:55.842Z,2.10
2023-04-16T17:46:23.373Z,1.50
2023-04-16T17:48:51.049Z,1.80
2023-04-16T17:51:18.582Z,2.40
2023-04-16T17:53:46.005Z,2.00
2023-04-16T17:56:14.160Z,2.10
2023-04-16T17:58:41.564Z,1.90
2023-04-16T18:01:08.978Z,1.73
2023-04-16T18:03:37.186Z,2.30
2023-04-16T18:06:04.898Z,1.90
2023-04-16T18:08:32.390Z,1.90
2023-04-16T18:10:59.808Z,2.00
2023-04-16T18:13:27.287Z,2.40
2023-04-16T18:15:54.796Z,3.53
2023-04-16T18:18:22.212Z,3.55
2023-04-16T18:20:49.662Z,2.90
2023-04-16T18:23:17.133Z,4.50
2023-04-16T18:25:44.697Z,3.25
2023-04-16T18:28:14.026Z,2.72
2023-04-16T18:30:42.581Z,2.55
2023-04-16T18:33:43.637Z,2.53
2023-04-16T18:36:02.345Z,2.92
2023-04-16T18:38:31.341Z,2.63
2023-04-16T18:40:58.693Z,2.70
2023-04-16T18:43:26.170Z,2.85
2023-04-16T18:45:53.686Z,3.10
2023-04-16T18:48:21.092Z,2.38
2023-04-16T18:50:48.433Z,1.98
2023-04-16T18:53:15.792Z,2.30
2023-04-16T18:55:43.251Z,2.10
2023-04-16T18:58:10.912Z,1.70
2023-04-16T19:00:38.283Z,2.80
2023-04-16T19:03:06.995Z,2.30
2023-04-16T19:05:34.711Z,2.30
2023-04-16T19:08:02.081Z,2.53
2023-04-16T19:10:29.519Z,2.70
2023-04-16T19:12:57.274Z,2.40
2023-04-16T19:15:24.705Z,2.42
2023-04-16T19:17:52.164Z,2.97
2023-04-16T19:20:20.198Z,2.72
2023-04-16T19:22:47.599Z,3.05
2023-04-16T19:25:15.016Z,2.67
2023-04-16T19:27:42.508Z,2.83
2023-04-16T19:30:10.325Z,2.75
2023-04-16T19:32:37.847Z,3.05
2023-04-16T19:35:05.612Z,3.03
2023-04-16T19:37:33.064Z,2.60
2023-04-16T19:40:01.843Z,3.00
2023-04-16T19:42:29.311Z,3.17
2023-04-16T19:44:56.818Z,3.00
2023-04-16T19:47:24.288Z,3.00
2023-04-16T19:49:51.640Z,2.95
2023-04-16T19:52:19.033Z,3.03
2023-04-16T19:54:46.586Z,3.22
2023-04-16T19:57:14.114Z,3.25
2023-04-16T19:59:42.258Z,3.30
2023-04-16T20:02:09.696Z,3.10
2023-04-16T20:04:37.149Z,3.63
2023-04-16T20:07:04.598Z,2.60
2023-04-16T20:09:31.983Z,3.05
2023-04-16T20:11:59.490Z,3.55
2023-04-16T20:14:26.856Z,3.20
2023-04-16T20:16:54.306Z,3.30
2023-04-16T20:19:22.152Z,3.20
2023-04-16T20:21:49.506Z,3.00
2023-04-16T20:24:16.858Z,2.90
2023-04-16T20:26:44.193Z,3.00
2023-04-16T20:29:11.882Z,2.72
2023-04-16T20:31:41.494Z,2.97
2023-04-16T20:34:09.048Z,2.72
2023-04-16T20:36:36.552Z,2.72
2023-04-16T20:39:07.216Z,2.70
2023-04-16T20:41:34.695Z,3.05
2023-04-16T20:44:05.556Z,2.97
2023-04-16T20:46:36.182Z,2.92
2023-04-16T20:49:03.664Z,2.75
2023-04-16T20:51:31.552Z,2.50
2023-04-16T20:53:58.962Z,2.40
2023-04-16T20:56:26.400Z,2.90
2023-04-16T20:58:54.019Z,3.15
2023-04-16T21:01:21.558Z,3.22
2023-04-16T21:03:49.111Z,2.72
2023-04-16T21:06:17.842Z,3.30
2023-04-16T21:08:45.418Z,3.20
2023-04-16T21:11:13.181Z,3.10
2023-04-16T21:13:40.587Z,2.97
2023-04-16T21:16:09.916Z,2.95
2023-04-16T21:18:37.359Z,2.90
2023-04-16T21:21:04.853Z,3.22
2023-04-16T21:23:32.249Z,2.60
2023-04-16T21:25:59.598Z,3.17
2023-04-16T21:28:26.957Z,3.67
2023-04-16T21:30:54.367Z,3.65
2023-04-16T21:33:21.824Z,3.40
2023-04-16T21:35:52.936Z,3.33
2023-04-16T21:38:21.485Z,2.95
2023-04-16T21:40:56.800Z,3.30
2023-04-16T21:43:24.255Z,3.40
2023-04-16T21:45:54.999Z,3.30
2023-04-16T21:48:22.770Z,2.95
2023-04-16T21:51:06.243Z,3.13
2023-04-16T21:53:34.163Z,3.00
2023-04-16T21:56:01.609Z,3.53
2023-04-16T21:58:29.090Z,3.58
2023-04-16T22:00:56.710Z,3.53
2023-04-16T22:03:28.270Z,3.42
2023-04-16T22:06:01.495Z,2.90
2023-04-16T22:08:30.234Z,2.83
2023-04-16T22:10:59.390Z,2.53
2023-04-16T22:13:27.154Z,3.00
2023-04-16T22:15:55.773Z,3.00
2023-04-16T22:18:25.527Z,3.10
2023-04-16T22:20:54.947Z,2.58
2023-04-16T22:23:23.777Z,2.80
2023-04-16T22:25:53.545Z,2.47
2023-04-16T22:28:20.929Z,2.55
2023-04-16T22:30:48.411Z,2.60
2023-04-16T22:33:15.979Z,2.75
2023-04-16T22:35:43.434Z,2.50
2023-04-16T22:38:11.073Z,2.97
2023-04-16T22:40:38.497Z,2.70
2023-04-16T22:43:06.237Z,2.92
2023-04-16T22:45:34.560Z,2.95
2023-04-16T22:48:02.604Z,2.95
2023-04-16T22:50:32.067Z,3.67
2023-04-16T22:52:59.492Z,3.20
2023-04-16T22:55:26.979Z,3.72
2023-04-16T22:57:54.333Z,3.60
2023-04-16T23:00:21.742Z,3.30
2023-04-16T23:02:49.229Z,3.40
2023-04-16T23:05:16.734Z,3.72
2023-04-16T23:07:44.088Z,3.45
2023-04-16T23:10:11.484Z,3.97
2023-04-16T23:12:38.884Z,4.07
2023-04-16T23:15:07.053Z,4.13
2023-04-16T23:17:35.290Z,4.85
2023-04-16T23:20:05.388Z,4.32
2023-04-16T23:22:32.796Z,4.40
2023-04-16T23:25:00.257Z,4.25
2023-04-16T23:27:28.058Z,4.20
2023-04-16T23:29:55.445Z,3.65
2023-04-16T23:32:22.896Z,4.03
2023-04-16T23:34:50.361Z,4.35
2023-04-16T23:37:17.780Z,4.28
2023-04-16T23:39:45.550Z,3.85
2023-04-16T23:42:13.049Z,4.18
2023-04-16T23:44:40.527Z,4.03
2023-04-16T23:47:08.211Z,4.20
2023-04-16T23:49:35.662Z,3.90
2023-04-16T23:52:03.326Z,3.70
2023-04-16T23:54:30.716Z,3.70
2023-04-16T23:56:58.128Z,3.60
2023-04-16T23:59:25.687Z,3.70
